sensor_id;sensor_type;location;lat;lon;timestamp;P1;durP1;ratioP1;P2;durP2;ratioP2
66856;SDS011;53766;50.280;19.160;2023-08-20T00:00:12;15.88;;;11.50;;
66856;SDS011;53766;50.280;19.160;2023-08-20T00:03:03;14.55;;;11.70;;
66856;SDS011;53766;50.280;19.160;2023-08-20T00:05:35;14.70;;;12.02;;
66856;SDS011;53766;50.280;19.160;2023-08-20T00:08:03;17.33;;;11.55;;
66856;SDS011;53766;50.280;19.160;2023-08-20T00:10:31;15.95;;;11.23;;
66856;SDS011;53766;50.280;19.160;2023-08-20T00:12:59;14.70;;;10.93;;
66856;SDS011;53766;50.280;19.160;2023-08-20T00:15:26;15.85;;;11.55;;
66856;SDS011;53766;50.280;19.160;2023-08-20T00:17:55;17.13;;;11.48;;
66856;SDS011;53766;50.280;19.160;2023-08-20T00:20:23;16.25;;;11.48;;
66856;SDS011;53766;50.280;19.160;2023-08-20T00:22:51;14.82;;;11.05;;
66856;SDS011;53766;50.280;19.160;2023-08-20T00:25:18;16.27;;;10.50;;
66856;SDS011;53766;50.280;19.160;2023-08-20T00:27:46;16.27;;;11.15;;
66856;SDS011;53766;50.280;19.160;2023-08-20T00:30:14;14.90;;;10.80;;
66856;SDS011;53766;50.280;19.160;2023-08-20T00:32:41;16.48;;;11.43;;
66856;SDS011;53766;50.280;19.160;2023-08-20T00:35:09;16.65;;;11.73;;
66856;SDS011;53766;50.280;19.160;2023-08-20T00:37:37;14.30;;;10.70;;
66856;SDS011;53766;50.280;19.160;2023-08-20T00:40:04;15.02;;;10.88;;
66856;SDS011;53766;50.280;19.160;2023-08-20T00:42:33;14.13;;;10.65;;
66856;SDS011;53766;50.280;19.160;2023-08-20T00:45:01;22.02;;;12.05;;
66856;SDS011;53766;50.280;19.160;2023-08-20T00:47:30;20.08;;;10.65;;
66856;SDS011;53766;50.280;19.160;2023-08-20T00:49:59;15.48;;;12.05;;
66856;SDS011;53766;50.280;19.160;2023-08-20T00:52:27;13.98;;;11.38;;
66856;SDS011;53766;50.280;19.160;2023-08-20T00:54:54;14.02;;;11.00;;
66856;SDS011;53766;50.280;19.160;2023-08-20T00:57:22;15.98;;;10.65;;
66856;SDS011;53766;50.280;19.160;2023-08-20T00:59:50;18.33;;;11.60;;
66856;SDS011;53766;50.280;19.160;2023-08-20T01:02:17;16.88;;;11.20;;
66856;SDS011;53766;50.280;19.160;2023-08-20T01:04:45;15.98;;;11.15;;
66856;SDS011;53766;50.280;19.160;2023-08-20T01:10:10;15.98;;;11.95;;
66856;SDS011;53766;50.280;19.160;2023-08-20T01:12:58;15.55;;;10.85;;
66856;SDS011;53766;50.280;19.160;2023-08-20T01:15:27;13.52;;;11.38;;
66856;SDS011;53766;50.280;19.160;2023-08-20T01:17:55;15.38;;;11.63;;
66856;SDS011;53766;50.280;19.160;2023-08-20T01:23:24;16.23;;;11.32;;
66856;SDS011;53766;50.280;19.160;2023-08-20T01:29:03;13.27;;;10.75;;
66856;SDS011;53766;50.280;19.160;2023-08-20T01:31:32;15.20;;;11.18;;
66856;SDS011;53766;50.280;19.160;2023-08-20T01:34:01;15.32;;;11.45;;
66856;SDS011;53766;50.280;19.160;2023-08-20T01:36:29;15.77;;;11.60;;
66856;SDS011;53766;50.280;19.160;2023-08-20T01:38:56;14.55;;;12.10;;
66856;SDS011;53766;50.280;19.160;2023-08-20T01:41:24;16.50;;;11.73;;
66856;SDS011;53766;50.280;19.160;2023-08-20T01:43:51;13.90;;;11.80;;
66856;SDS011;53766;50.280;19.160;2023-08-20T01:46:19;17.13;;;11.55;;
66856;SDS011;53766;50.280;19.160;2023-08-20T01:48:47;15.45;;;12.10;;
66856;SDS011;53766;50.280;19.160;2023-08-20T01:51:14;18.35;;;11.75;;
66856;SDS011;53766;50.280;19.160;2023-08-20T01:53:42;18.05;;;11.07;;
66856;SDS011;53766;50.280;19.160;2023-08-20T01:56:13;15.00;;;11.70;;
66856;SDS011;53766;50.280;19.160;2023-08-20T01:58:41;15.73;;;11.88;;
66856;SDS011;53766;50.280;19.160;2023-08-20T02:01:08;16.42;;;11.95;;
66856;SDS011;53766;50.280;19.160;2023-08-20T02:03:36;16.45;;;11.27;;
66856;SDS011;53766;50.280;19.160;2023-08-20T02:06:05;16.27;;;11.93;;
66856;SDS011;53766;50.280;19.160;2023-08-20T02:08:33;13.82;;;11.70;;
66856;SDS011;53766;50.280;19.160;2023-08-20T02:11:01;13.07;;;11.63;;
66856;SDS011;53766;50.280;19.160;2023-08-20T02:13:32;15.23;;;11.35;;
66856;SDS011;53766;50.280;19.160;2023-08-20T02:16:03;14.75;;;11.75;;
66856;SDS011;53766;50.280;19.160;2023-08-20T02:18:32;14.43;;;12.25;;
66856;SDS011;53766;50.280;19.160;2023-08-20T02:20:59;16.73;;;11.82;;
66856;SDS011;53766;50.280;19.160;2023-08-20T02:23:27;15.63;;;11.85;;
66856;SDS011;53766;50.280;19.160;2023-08-20T02:25:55;15.70;;;12.30;;
66856;SDS011;53766;50.280;19.160;2023-08-20T02:28:23;15.13;;;11.35;;
66856;SDS011;53766;50.280;19.160;2023-08-20T02:30:50;14.57;;;12.05;;
66856;SDS011;53766;50.280;19.160;2023-08-20T02:33:18;14.98;;;11.80;;
66856;SDS011;53766;50.280;19.160;2023-08-20T02:35:45;13.65;;;11.68;;
66856;SDS011;53766;50.280;19.160;2023-08-20T02:38:13;14.57;;;11.77;;
66856;SDS011;53766;50.280;19.160;2023-08-20T02:40:42;19.08;;;12.07;;
66856;SDS011;53766;50.280;19.160;2023-08-20T02:43:09;14.82;;;11.82;;
66856;SDS011;53766;50.280;19.160;2023-08-20T02:45:41;15.18;;;11.38;;
66856;SDS011;53766;50.280;19.160;2023-08-20T02:48:10;15.73;;;11.57;;
66856;SDS011;53766;50.280;19.160;2023-08-20T02:50:38;16.70;;;11.65;;
66856;SDS011;53766;50.280;19.160;2023-08-20T02:53:06;15.15;;;12.20;;
66856;SDS011;53766;50.280;19.160;2023-08-20T02:55:34;15.77;;;11.07;;
66856;SDS011;53766;50.280;19.160;2023-08-20T02:58:02;14.90;;;12.00;;
66856;SDS011;53766;50.280;19.160;2023-08-20T03:00:30;13.30;;;11.38;;
66856;SDS011;53766;50.280;19.160;2023-08-20T03:02:58;17.13;;;12.20;;
66856;SDS011;53766;50.280;19.160;2023-08-20T03:05:26;18.75;;;12.30;;
66856;SDS011;53766;50.280;19.160;2023-08-20T03:07:54;16.65;;;12.30;;
66856;SDS011;53766;50.280;19.160;2023-08-20T03:10:21;16.05;;;12.20;;
66856;SDS011;53766;50.280;19.160;2023-08-20T03:12:49;16.30;;;11.57;;
66856;SDS011;53766;50.280;19.160;2023-08-20T03:15:16;14.15;;;11.90;;
66856;SDS011;53766;50.280;19.160;2023-08-20T03:17:44;17.70;;;12.18;;
66856;SDS011;53766;50.280;19.160;2023-08-20T03:20:12;16.45;;;12.05;;
66856;SDS011;53766;50.280;19.160;2023-08-20T03:22:39;14.15;;;12.30;;
66856;SDS011;53766;50.280;19.160;2023-08-20T03:25:07;17.30;;;11.55;;
66856;SDS011;53766;50.280;19.160;2023-08-20T03:27:35;18.50;;;11.80;;
66856;SDS011;53766;50.280;19.160;2023-08-20T03:30:03;15.55;;;11.80;;
66856;SDS011;53766;50.280;19.160;2023-08-20T03:32:31;15.82;;;11.98;;
66856;SDS011;53766;50.280;19.160;2023-08-20T03:34:59;14.90;;;11.48;;
66856;SDS011;53766;50.280;19.160;2023-08-20T03:37:27;13.57;;;11.75;;
66856;SDS011;53766;50.280;19.160;2023-08-20T03:39:54;13.57;;;11.50;;
66856;SDS011;53766;50.280;19.160;2023-08-20T03:42:22;14.43;;;11.77;;
66856;SDS011;53766;50.280;19.160;2023-08-20T03:44:50;14.05;;;11.68;;
66856;SDS011;53766;50.280;19.160;2023-08-20T03:47:17;13.90;;;11.10;;
66856;SDS011;53766;50.280;19.160;2023-08-20T03:49:48;14.85;;;11.35;;
66856;SDS011;53766;50.280;19.160;2023-08-20T03:52:15;19.27;;;11.77;;
66856;SDS011;53766;50.280;19.160;2023-08-20T03:54:43;16.17;;;11.75;;
66856;SDS011;53766;50.280;19.160;2023-08-20T03:57:10;15.07;;;10.98;;
66856;SDS011;53766;50.280;19.160;2023-08-20T03:59:38;19.88;;;12.23;;
66856;SDS011;53766;50.280;19.160;2023-08-20T04:02:06;14.38;;;11.07;;
66856;SDS011;53766;50.280;19.160;2023-08-20T04:04:33;14.57;;;10.90;;
66856;SDS011;53766;50.280;19.160;2023-08-20T04:07:01;17.08;;;11.55;;
66856;SDS011;53766;50.280;19.160;2023-08-20T04:09:29;13.82;;;11.07;;
66856;SDS011;53766;50.280;19.160;2023-08-20T04:11:57;16.00;;;11.57;;
66856;SDS011;53766;50.280;19.160;2023-08-20T04:14:24;13.27;;;11.45;;
66856;SDS011;53766;50.280;19.160;2023-08-20T04:16:52;15.95;;;11.38;;
66856;SDS011;53766;50.280;19.160;2023-08-20T04:19:19;16.20;;;11.85;;
66856;SDS011;53766;50.280;19.160;2023-08-20T04:21:50;18.83;;;11.75;;
66856;SDS011;53766;50.280;19.160;2023-08-20T04:24:18;13.25;;;10.68;;
66856;SDS011;53766;50.280;19.160;2023-08-20T04:26:46;14.27;;;12.38;;
66856;SDS011;53766;50.280;19.160;2023-08-20T04:29:13;13.93;;;11.50;;
66856;SDS011;53766;50.280;19.160;2023-08-20T04:31:41;14.10;;;10.80;;
66856;SDS011;53766;50.280;19.160;2023-08-20T04:34:08;13.48;;;11.43;;
66856;SDS011;53766;50.280;19.160;2023-08-20T04:36:36;14.48;;;11.40;;
66856;SDS011;53766;50.280;19.160;2023-08-20T04:39:03;14.00;;;11.68;;
66856;SDS011;53766;50.280;19.160;2023-08-20T04:41:32;16.98;;;11.68;;
66856;SDS011;53766;50.280;19.160;2023-08-20T04:43:59;15.88;;;11.40;;
66856;SDS011;53766;50.280;19.160;2023-08-20T04:46:27;16.15;;;12.00;;
66856;SDS011;53766;50.280;19.160;2023-08-20T04:48:55;18.77;;;12.10;;
66856;SDS011;53766;50.280;19.160;2023-08-20T04:51:23;13.98;;;11.65;;
66856;SDS011;53766;50.280;19.160;2023-08-20T04:53:51;17.90;;;11.32;;
66856;SDS011;53766;50.280;19.160;2023-08-20T04:56:18;13.43;;;11.82;;
66856;SDS011;53766;50.280;19.160;2023-08-20T04:58:46;15.30;;;12.13;;
66856;SDS011;53766;50.280;19.160;2023-08-20T05:01:13;17.42;;;12.15;;
66856;SDS011;53766;50.280;19.160;2023-08-20T05:03:41;16.35;;;11.77;;
66856;SDS011;53766;50.280;19.160;2023-08-20T05:06:09;15.65;;;11.80;;
66856;SDS011;53766;50.280;19.160;2023-08-20T05:08:36;17.70;;;11.90;;
66856;SDS011;53766;50.280;19.160;2023-08-20T05:11:04;18.40;;;12.35;;
66856;SDS011;53766;50.280;19.160;2023-08-20T05:13:31;16.70;;;11.60;;
66856;SDS011;53766;50.280;19.160;2023-08-20T05:15:59;18.10;;;12.68;;
66856;SDS011;53766;50.280;19.160;2023-08-20T05:18:27;15.45;;;12.60;;
66856;SDS011;53766;50.280;19.160;2023-08-20T05:20:54;19.90;;;12.98;;
66856;SDS011;53766;50.280;19.160;2023-08-20T05:23:22;17.85;;;12.98;;
66856;SDS011;53766;50.280;19.160;2023-08-20T05:25:49;15.05;;;12.57;;
66856;SDS011;53766;50.280;19.160;2023-08-20T05:28:17;16.65;;;12.90;;
66856;SDS011;53766;50.280;19.160;2023-08-20T05:30:52;19.75;;;13.27;;
66856;SDS011;53766;50.280;19.160;2023-08-20T05:33:22;19.38;;;13.02;;
66856;SDS011;53766;50.280;19.160;2023-08-20T05:35:50;20.52;;;13.57;;
66856;SDS011;53766;50.280;19.160;2023-08-20T05:38:18;21.40;;;13.98;;
66856;SDS011;53766;50.280;19.160;2023-08-20T05:40:45;18.98;;;14.05;;
66856;SDS011;53766;50.280;19.160;2023-08-20T05:43:13;17.85;;;13.95;;
66856;SDS011;53766;50.280;19.160;2023-08-20T05:45:40;25.98;;;14.00;;
66856;SDS011;53766;50.280;19.160;2023-08-20T05:48:08;19.92;;;14.48;;
66856;SDS011;53766;50.280;19.160;2023-08-20T05:50:36;23.58;;;15.10;;
66856;SDS011;53766;50.280;19.160;2023-08-20T05:53:03;23.60;;;15.57;;
66856;SDS011;53766;50.280;19.160;2023-08-20T05:55:31;23.50;;;15.27;;
66856;SDS011;53766;50.280;19.160;2023-08-20T05:57:58;20.90;;;15.95;;
66856;SDS011;53766;50.280;19.160;2023-08-20T06:00:26;18.52;;;14.93;;
66856;SDS011;53766;50.280;19.160;2023-08-20T06:02:53;20.73;;;15.57;;
66856;SDS011;53766;50.280;19.160;2023-08-20T06:05:21;17.15;;;15.10;;
66856;SDS011;53766;50.280;19.160;2023-08-20T06:07:49;19.92;;;14.38;;
66856;SDS011;53766;50.280;19.160;2023-08-20T06:10:17;21.58;;;15.20;;
66856;SDS011;53766;50.280;19.160;2023-08-20T06:12:44;21.60;;;15.20;;
66856;SDS011;53766;50.280;19.160;2023-08-20T06:15:12;17.85;;;13.70;;
66856;SDS011;53766;50.280;19.160;2023-08-20T06:17:39;20.80;;;14.32;;
66856;SDS011;53766;50.280;19.160;2023-08-20T06:20:07;19.33;;;16.00;;
66856;SDS011;53766;50.280;19.160;2023-08-20T06:22:36;20.65;;;15.55;;
66856;SDS011;53766;50.280;19.160;2023-08-20T06:25:04;20.52;;;15.90;;
66856;SDS011;53766;50.280;19.160;2023-08-20T06:27:32;18.35;;;15.80;;
66856;SDS011;53766;50.280;19.160;2023-08-20T06:30:02;22.23;;;16.45;;
66856;SDS011;53766;50.280;19.160;2023-08-20T06:32:29;23.92;;;16.00;;
66856;SDS011;53766;50.280;19.160;2023-08-20T06:34:57;19.63;;;15.45;;
66856;SDS011;53766;50.280;19.160;2023-08-20T06:37:24;24.55;;;15.80;;
66856;SDS011;53766;50.280;19.160;2023-08-20T06:39:52;28.25;;;16.20;;
66856;SDS011;53766;50.280;19.160;2023-08-20T06:42:20;20.98;;;16.27;;
66856;SDS011;53766;50.280;19.160;2023-08-20T06:44:48;25.30;;;16.42;;
66856;SDS011;53766;50.280;19.160;2023-08-20T06:47:15;21.52;;;16.55;;
66856;SDS011;53766;50.280;19.160;2023-08-20T06:49:43;21.92;;;16.10;;
66856;SDS011;53766;50.280;19.160;2023-08-20T06:52:10;20.92;;;15.70;;
66856;SDS011;53766;50.280;19.160;2023-08-20T06:54:38;22.48;;;16.27;;
66856;SDS011;53766;50.280;19.160;2023-08-20T06:57:05;22.00;;;15.73;;
66856;SDS011;53766;50.280;19.160;2023-08-20T06:59:33;23.02;;;16.35;;
66856;SDS011;53766;50.280;19.160;2023-08-20T07:02:02;23.90;;;15.77;;
66856;SDS011;53766;50.280;19.160;2023-08-20T07:04:30;19.85;;;16.25;;
66856;SDS011;53766;50.280;19.160;2023-08-20T07:06:58;20.60;;;15.32;;
66856;SDS011;53766;50.280;19.160;2023-08-20T07:09:26;20.90;;;16.10;;
66856;SDS011;53766;50.280;19.160;2023-08-20T07:11:53;20.35;;;15.45;;
66856;SDS011;53766;50.280;19.160;2023-08-20T07:14:21;20.10;;;16.05;;
66856;SDS011;53766;50.280;19.160;2023-08-20T07:16:48;19.15;;;15.75;;
66856;SDS011;53766;50.280;19.160;2023-08-20T07:19:16;25.42;;;15.70;;
66856;SDS011;53766;50.280;19.160;2023-08-20T07:21:43;21.38;;;15.57;;
66856;SDS011;53766;50.280;19.160;2023-08-20T07:24:11;21.25;;;14.82;;
66856;SDS011;53766;50.280;19.160;2023-08-20T07:26:39;21.33;;;16.02;;
66856;SDS011;53766;50.280;19.160;2023-08-20T07:29:06;21.83;;;15.13;;
66856;SDS011;53766;50.280;19.160;2023-08-20T07:31:34;23.90;;;15.15;;
66856;SDS011;53766;50.280;19.160;2023-08-20T07:34:02;19.50;;;15.48;;
66856;SDS011;53766;50.280;19.160;2023-08-20T07:36:32;19.73;;;16.20;;
66856;SDS011;53766;50.280;19.160;2023-08-20T07:39:00;26.67;;;16.95;;
66856;SDS011;53766;50.280;19.160;2023-08-20T07:41:29;20.73;;;15.60;;
66856;SDS011;53766;50.280;19.160;2023-08-20T07:43:57;26.23;;;16.45;;
66856;SDS011;53766;50.280;19.160;2023-08-20T07:46:25;20.23;;;15.88;;
66856;SDS011;53766;50.280;19.160;2023-08-20T07:48:53;22.83;;;15.60;;
66856;SDS011;53766;50.280;19.160;2023-08-20T07:51:21;24.48;;;16.95;;
66856;SDS011;53766;50.280;19.160;2023-08-20T07:53:48;20.88;;;15.18;;
66856;SDS011;53766;50.280;19.160;2023-08-20T07:56:16;21.85;;;15.60;;
66856;SDS011;53766;50.280;19.160;2023-08-20T07:58:43;20.42;;;15.52;;
66856;SDS011;53766;50.280;19.160;2023-08-20T08:01:11;20.90;;;16.05;;
66856;SDS011;53766;50.280;19.160;2023-08-20T08:03:40;20.83;;;14.95;;
66856;SDS011;53766;50.280;19.160;2023-08-20T08:06:08;21.30;;;15.52;;
66856;SDS011;53766;50.280;19.160;2023-08-20T08:08:37;22.58;;;16.80;;
66856;SDS011;53766;50.280;19.160;2023-08-20T08:11:05;19.77;;;15.60;;
66856;SDS011;53766;50.280;19.160;2023-08-20T08:13:32;19.42;;;14.68;;
66856;SDS011;53766;50.280;19.160;2023-08-20T08:16:00;24.00;;;16.58;;
66856;SDS011;53766;50.280;19.160;2023-08-20T08:18:27;23.92;;;17.63;;
66856;SDS011;53766;50.280;19.160;2023-08-20T08:20:55;24.65;;;18.05;;
66856;SDS011;53766;50.280;19.160;2023-08-20T08:23:22;23.40;;;16.98;;
66856;SDS011;53766;50.280;19.160;2023-08-20T08:25:50;21.80;;;15.88;;
66856;SDS011;53766;50.280;19.160;2023-08-20T08:28:17;21.88;;;16.48;;
66856;SDS011;53766;50.280;19.160;2023-08-20T08:30:45;19.08;;;15.73;;
66856;SDS011;53766;50.280;19.160;2023-08-20T08:33:13;20.48;;;16.65;;
66856;SDS011;53766;50.280;19.160;2023-08-20T08:35:40;21.45;;;16.85;;
66856;SDS011;53766;50.280;19.160;2023-08-20T08:38:08;28.02;;;18.02;;
66856;SDS011;53766;50.280;19.160;2023-08-20T08:40:35;24.23;;;17.45;;
66856;SDS011;53766;50.280;19.160;2023-08-20T08:43:04;23.40;;;16.50;;
66856;SDS011;53766;50.280;19.160;2023-08-20T08:45:32;21.27;;;15.18;;
66856;SDS011;53766;50.280;19.160;2023-08-20T08:48:02;18.98;;;15.35;;
66856;SDS011;53766;50.280;19.160;2023-08-20T08:50:31;23.52;;;15.18;;
66856;SDS011;53766;50.280;19.160;2023-08-20T08:52:59;18.92;;;14.88;;
66856;SDS011;53766;50.280;19.160;2023-08-20T08:55:27;16.45;;;14.20;;
66856;SDS011;53766;50.280;19.160;2023-08-20T08:57:55;16.27;;;14.23;;
66856;SDS011;53766;50.280;19.160;2023-08-20T09:00:23;15.93;;;14.18;;
66856;SDS011;53766;50.280;19.160;2023-08-20T09:02:50;18.33;;;14.35;;
66856;SDS011;53766;50.280;19.160;2023-08-20T09:05:18;20.45;;;14.68;;
66856;SDS011;53766;50.280;19.160;2023-08-20T09:07:45;21.95;;;14.85;;
66856;SDS011;53766;50.280;19.160;2023-08-20T09:10:15;17.20;;;14.40;;
66856;SDS011;53766;50.280;19.160;2023-08-20T09:12:45;19.17;;;14.13;;
66856;SDS011;53766;50.280;19.160;2023-08-20T09:15:15;16.20;;;13.13;;
66856;SDS011;53766;50.280;19.160;2023-08-20T09:17:42;19.48;;;13.48;;
66856;SDS011;53766;50.280;19.160;2023-08-20T09:20:10;17.65;;;13.63;;
66856;SDS011;53766;50.280;19.160;2023-08-20T09:22:37;17.67;;;13.60;;
66856;SDS011;53766;50.280;19.160;2023-08-20T09:25:05;17.25;;;12.80;;
66856;SDS011;53766;50.280;19.160;2023-08-20T09:27:38;16.58;;;13.35;;
66856;SDS011;53766;50.280;19.160;2023-08-20T09:30:09;15.43;;;12.57;;
66856;SDS011;53766;50.280;19.160;2023-08-20T09:32:45;17.58;;;12.23;;
66856;SDS011;53766;50.280;19.160;2023-08-20T09:35:18;13.50;;;12.10;;
66856;SDS011;53766;50.280;19.160;2023-08-20T09:37:46;15.25;;;11.13;;
66856;SDS011;53766;50.280;19.160;2023-08-20T09:40:13;13.32;;;10.77;;
66856;SDS011;53766;50.280;19.160;2023-08-20T09:42:41;15.55;;;10.75;;
66856;SDS011;53766;50.280;19.160;2023-08-20T09:45:10;13.98;;;10.60;;
66856;SDS011;53766;50.280;19.160;2023-08-20T09:47:38;12.07;;;10.63;;
66856;SDS011;53766;50.280;19.160;2023-08-20T09:50:10;13.20;;;10.75;;
66856;SDS011;53766;50.280;19.160;2023-08-20T09:52:39;11.65;;;9.60;;
66856;SDS011;53766;50.280;19.160;2023-08-20T09:55:11;11.82;;;9.30;;
66856;SDS011;53766;50.280;19.160;2023-08-20T09:57:43;14.20;;;10.25;;
66856;SDS011;53766;50.280;19.160;2023-08-20T10:00:13;16.92;;;10.60;;
66856;SDS011;53766;50.280;19.160;2023-08-20T10:02:41;14.52;;;10.18;;
66856;SDS011;53766;50.280;19.160;2023-08-20T10:05:10;12.60;;;10.80;;
66856;SDS011;53766;50.280;19.160;2023-08-20T10:07:40;15.35;;;10.65;;
66856;SDS011;53766;50.280;19.160;2023-08-20T10:10:10;11.88;;;10.65;;
66856;SDS011;53766;50.280;19.160;2023-08-20T10:12:40;14.07;;;10.55;;
66856;SDS011;53766;50.280;19.160;2023-08-20T10:15:09;12.70;;;10.57;;
66856;SDS011;53766;50.280;19.160;2023-08-20T10:17:38;13.95;;;11.40;;
66856;SDS011;53766;50.280;19.160;2023-08-20T10:20:07;13.45;;;11.20;;
66856;SDS011;53766;50.280;19.160;2023-08-20T10:22:38;14.65;;;11.32;;
66856;SDS011;53766;50.280;19.160;2023-08-20T10:25:07;12.65;;;11.20;;
66856;SDS011;53766;50.280;19.160;2023-08-20T10:27:35;17.33;;;11.05;;
66856;SDS011;53766;50.280;19.160;2023-08-20T10:30:08;14.07;;;10.65;;
66856;SDS011;53766;50.280;19.160;2023-08-20T10:35:28;12.43;;;10.23;;
66856;SDS011;53766;50.280;19.160;2023-08-20T10:38:14;14.93;;;10.10;;
66856;SDS011;53766;50.280;19.160;2023-08-20T10:40:47;17.92;;;11.27;;
66856;SDS011;53766;50.280;19.160;2023-08-20T10:43:32;17.27;;;10.85;;
66856;SDS011;53766;50.280;19.160;2023-08-20T10:48:46;13.23;;;9.98;;
66856;SDS011;53766;50.280;19.160;2023-08-20T10:51:25;13.63;;;9.93;;
66856;SDS011;53766;50.280;19.160;2023-08-20T10:59:21;13.82;;;10.05;;
66856;SDS011;53766;50.280;19.160;2023-08-20T11:01:50;13.48;;;10.05;;
66856;SDS011;53766;50.280;19.160;2023-08-20T11:04:20;12.60;;;10.68;;
66856;SDS011;53766;50.280;19.160;2023-08-20T11:06:49;16.67;;;11.00;;
66856;SDS011;53766;50.280;19.160;2023-08-20T11:09:21;13.63;;;10.20;;
66856;SDS011;53766;50.280;19.160;2023-08-20T11:11:50;12.15;;;10.25;;
66856;SDS011;53766;50.280;19.160;2023-08-20T11:14:18;14.02;;;10.38;;
66856;SDS011;53766;50.280;19.160;2023-08-20T11:16:48;13.38;;;10.93;;
66856;SDS011;53766;50.280;19.160;2023-08-20T11:19:19;11.98;;;10.32;;
66856;SDS011;53766;50.280;19.160;2023-08-20T11:21:48;14.85;;;10.68;;
66856;SDS011;53766;50.280;19.160;2023-08-20T11:24:16;11.05;;;9.45;;
66856;SDS011;53766;50.280;19.160;2023-08-20T11:26:45;10.25;;;8.98;;
66856;SDS011;53766;50.280;19.160;2023-08-20T11:29:13;10.57;;;8.77;;
66856;SDS011;53766;50.280;19.160;2023-08-20T11:31:47;9.77;;;8.77;;
66856;SDS011;53766;50.280;19.160;2023-08-20T11:34:18;10.60;;;8.27;;
66856;SDS011;53766;50.280;19.160;2023-08-20T11:36:46;10.63;;;8.88;;
66856;SDS011;53766;50.280;19.160;2023-08-20T11:39:15;10.85;;;8.80;;
66856;SDS011;53766;50.280;19.160;2023-08-20T11:41:43;11.85;;;8.77;;
66856;SDS011;53766;50.280;19.160;2023-08-20T11:44:18;10.43;;;8.45;;
66856;SDS011;53766;50.280;19.160;2023-08-20T11:46:48;8.88;;;7.85;;
66856;SDS011;53766;50.280;19.160;2023-08-20T11:49:16;9.27;;;7.82;;
66856;SDS011;53766;50.280;19.160;2023-08-20T11:51:44;10.20;;;7.95;;
66856;SDS011;53766;50.280;19.160;2023-08-20T11:54:17;9.35;;;8.10;;
66856;SDS011;53766;50.280;19.160;2023-08-20T11:56:49;9.38;;;8.38;;
66856;SDS011;53766;50.280;19.160;2023-08-20T11:59:21;16.80;;;8.80;;
66856;SDS011;53766;50.280;19.160;2023-08-20T12:01:52;9.93;;;8.05;;
66856;SDS011;53766;50.280;19.160;2023-08-20T12:09:51;13.48;;;8.38;;
66856;SDS011;53766;50.280;19.160;2023-08-20T12:12:19;10.40;;;7.88;;
66856;SDS011;53766;50.280;19.160;2023-08-20T12:14:49;10.48;;;7.82;;
66856;SDS011;53766;50.280;19.160;2023-08-20T12:17:17;9.25;;;7.70;;
66856;SDS011;53766;50.280;19.160;2023-08-20T12:19:45;9.25;;;7.57;;
66856;SDS011;53766;50.280;19.160;2023-08-20T12:22:13;8.90;;;8.00;;
66856;SDS011;53766;50.280;19.160;2023-08-20T12:24:40;9.25;;;7.70;;
66856;SDS011;53766;50.280;19.160;2023-08-20T12:27:08;8.57;;;7.68;;
66856;SDS011;53766;50.280;19.160;2023-08-20T12:29:35;9.65;;;7.80;;
66856;SDS011;53766;50.280;19.160;2023-08-20T12:32:03;8.85;;;7.13;;
66856;SDS011;53766;50.280;19.160;2023-08-20T12:34:32;10.45;;;7.50;;
66856;SDS011;53766;50.280;19.160;2023-08-20T12:37:00;9.45;;;7.18;;
66856;SDS011;53766;50.280;19.160;2023-08-20T12:39:27;10.23;;;7.60;;
66856;SDS011;53766;50.280;19.160;2023-08-20T12:41:55;10.00;;;6.82;;
66856;SDS011;53766;50.280;19.160;2023-08-20T12:44:22;8.75;;;7.30;;
66856;SDS011;53766;50.280;19.160;2023-08-20T12:46:50;10.43;;;7.43;;
66856;SDS011;53766;50.280;19.160;2023-08-20T12:49:18;8.43;;;7.45;;
66856;SDS011;53766;50.280;19.160;2023-08-20T12:51:45;10.32;;;7.53;;
66856;SDS011;53766;50.280;19.160;2023-08-20T12:54:13;8.82;;;7.18;;
66856;SDS011;53766;50.280;19.160;2023-08-20T12:56:40;11.52;;;7.95;;
66856;SDS011;53766;50.280;19.160;2023-08-20T12:59:08;8.18;;;7.13;;
66856;SDS011;53766;50.280;19.160;2023-08-20T13:01:35;9.75;;;7.35;;
66856;SDS011;53766;50.280;19.160;2023-08-20T13:04:03;9.93;;;7.40;;
66856;SDS011;53766;50.280;19.160;2023-08-20T13:06:31;9.48;;;7.20;;
66856;SDS011;53766;50.280;19.160;2023-08-20T13:08:59;10.40;;;6.90;;
66856;SDS011;53766;50.280;19.160;2023-08-20T13:11:28;8.20;;;6.78;;
66856;SDS011;53766;50.280;19.160;2023-08-20T13:13:59;7.55;;;6.80;;
66856;SDS011;53766;50.280;19.160;2023-08-20T13:16:27;12.43;;;6.85;;
66856;SDS011;53766;50.280;19.160;2023-08-20T13:18:56;10.65;;;6.78;;
66856;SDS011;53766;50.280;19.160;2023-08-20T13:21:24;8.45;;;6.40;;
66856;SDS011;53766;50.280;19.160;2023-08-20T13:23:51;10.73;;;6.97;;
66856;SDS011;53766;50.280;19.160;2023-08-20T13:26:19;10.02;;;7.38;;
66856;SDS011;53766;50.280;19.160;2023-08-20T13:28:49;8.00;;;6.50;;
66856;SDS011;53766;50.280;19.160;2023-08-20T13:31:16;8.50;;;6.50;;
66856;SDS011;53766;50.280;19.160;2023-08-20T13:33:44;7.50;;;6.72;;
66856;SDS011;53766;50.280;19.160;2023-08-20T13:36:11;11.70;;;6.50;;
66856;SDS011;53766;50.280;19.160;2023-08-20T13:38:57;8.02;;;6.72;;
66856;SDS011;53766;50.280;19.160;2023-08-20T13:41:25;9.15;;;6.75;;
66856;SDS011;53766;50.280;19.160;2023-08-20T13:43:53;8.35;;;6.40;;
66856;SDS011;53766;50.280;19.160;2023-08-20T13:46:21;7.80;;;6.68;;
66856;SDS011;53766;50.280;19.160;2023-08-20T13:48:48;7.40;;;6.60;;
66856;SDS011;53766;50.280;19.160;2023-08-20T13:51:16;10.27;;;6.47;;
66856;SDS011;53766;50.280;19.160;2023-08-20T13:53:43;9.32;;;6.78;;
66856;SDS011;53766;50.280;19.160;2023-08-20T13:56:11;10.60;;;6.55;;
66856;SDS011;53766;50.280;19.160;2023-08-20T13:58:39;11.07;;;6.65;;
66856;SDS011;53766;50.280;19.160;2023-08-20T14:01:06;8.20;;;6.53;;
66856;SDS011;53766;50.280;19.160;2023-08-20T14:03:34;9.98;;;6.85;;
66856;SDS011;53766;50.280;19.160;2023-08-20T14:06:02;10.10;;;6.43;;
66856;SDS011;53766;50.280;19.160;2023-08-20T14:08:30;7.32;;;6.55;;
66856;SDS011;53766;50.280;19.160;2023-08-20T14:10:58;9.30;;;6.60;;
66856;SDS011;53766;50.280;19.160;2023-08-20T14:13:25;8.00;;;6.70;;
66856;SDS011;53766;50.280;19.160;2023-08-20T14:15:53;7.45;;;6.65;;
66856;SDS011;53766;50.280;19.160;2023-08-20T14:18:20;7.53;;;6.60;;
66856;SDS011;53766;50.280;19.160;2023-08-20T14:20:48;6.53;;;5.75;;
66856;SDS011;53766;50.280;19.160;2023-08-20T14:23:15;10.27;;;6.47;;
66856;SDS011;53766;50.280;19.160;2023-08-20T14:25:43;11.57;;;6.57;;
66856;SDS011;53766;50.280;19.160;2023-08-20T14:28:11;8.77;;;6.57;;
66856;SDS011;53766;50.280;19.160;2023-08-20T14:30:39;7.82;;;6.40;;
66856;SDS011;53766;50.280;19.160;2023-08-20T14:33:06;10.05;;;6.18;;
66856;SDS011;53766;50.280;19.160;2023-08-20T14:35:34;8.27;;;6.75;;
66856;SDS011;53766;50.280;19.160;2023-08-20T14:38:01;7.07;;;6.03;;
66856;SDS011;53766;50.280;19.160;2023-08-20T14:40:29;9.43;;;6.50;;
66856;SDS011;53766;50.280;19.160;2023-08-20T14:42:57;8.30;;;6.43;;
66856;SDS011;53766;50.280;19.160;2023-08-20T14:45:25;8.45;;;6.32;;